sensor_id;sensor_type;location;lat;lon;timestamp;temperature;humidity
75091;DHT22;63674;48.048;8.306;2023-04-01T00:01:17;5.00;99.90
75091;DHT22;63674;48.048;8.306;2023-04-01T00:03:47;5.00;99.90
75091;DHT22;63674;48.048;8.306;2023-04-01T00:06:17;5.00;99.90
75091;DHT22;63674;48.048;8.306;2023-04-01T00:08:46;5.00;99.90
75091;DHT22;63674;48.048;8.306;2023-04-01T00:11:16;4.90;99.90
75091;DHT22;63674;48.048;8.306;2023-04-01T00:13:47;5.00;99.90
75091;DHT22;63674;48.048;8.306;2023-04-01T00:16:16;5.00;99.90
75091;DHT22;63674;48.048;8.306;2023-04-01T00:18:50;5.00;99.90
75091;DHT22;63674;48.048;8.306;2023-04-01T00:21:20;5.00;99.90
75091;DHT22;63674;48.048;8.306;2023-04-01T00:23:49;5.00;99.90
75091;DHT22;63674;48.048;8.306;2023-04-01T00:26:18;5.00;99.90
75091;DHT22;63674;48.048;8.306;2023-04-01T00:28:49;4.90;99.90
75091;DHT22;63674;48.048;8.306;2023-04-01T00:31:18;4.90;99.90
75091;DHT22;63674;48.048;8.306;2023-04-01T00:33:47;4.80;99.90
75091;DHT22;63674;48.048;8.306;2023-04-01T00:36:19;4.80;99.90
75091;DHT22;63674;48.048;8.306;2023-04-01T00:38:50;4.80;99.90
75091;DHT22;63674;48.048;8.306;2023-04-01T00:41:19;4.70;99.90
75091;DHT22;63674;48.048;8.306;2023-04-01T00:43:52;4.70;99.90
75091;DHT22;63674;48.048;8.306;2023-04-01T00:46:36;4.80;99.90
75091;DHT22;63674;48.048;8.306;2023-04-01T00:49:04;4.70;99.90
75091;DHT22;63674;48.048;8.306;2023-04-01T00:51:34;4.80;99.90
75091;DHT22;63674;48.048;8.306;2023-04-01T00:54:05;4.80;99.90
75091;DHT22;63674;48.048;8.306;2023-04-01T00:56:37;4.80;99.90
75091;DHT22;63674;48.048;8.306;2023-04-01T00:59:11;4.90;99.90
75091;DHT22;63674;48.048;8.306;2023-04-01T01:01:42;4.90;99.90
75091;DHT22;63674;48.048;8.306;2023-04-01T01:04:22;4.90;99.90
75091;DHT22;63674;48.048;8.306;2023-04-01T01:06:59;5.00;99.90
75091;DHT22;63674;48.048;8.306;2023-04-01T01:10:02;5.10;99.90
75091;DHT22;63674;48.048;8.306;2023-04-01T01:12:37;5.10;99.90
75091;DHT22;63674;48.048;8.306;2023-04-01T01:15:12;5.10;99.90
75091;DHT22;63674;48.048;8.306;2023-04-01T01:17:50;5.10;99.90
75091;DHT22;63674;48.048;8.306;2023-04-01T01:20:57;5.10;99.90
75091;DHT22;63674;48.048;8.306;2023-04-01T01:24:08;5.10;99.90
75091;DHT22;63674;48.048;8.306;2023-04-01T01:26:58;5.10;99.90
75091;DHT22;63674;48.048;8.306;2023-04-01T01:29:54;5.10;99.90
75091;DHT22;63674;48.048;8.306;2023-04-01T01:32:58;5.10;99.90
75091;DHT22;63674;48.048;8.306;2023-04-01T01:35:37;5.10;99.90
75091;DHT22;63674;48.048;8.306;2023-04-01T01:38:10;5.10;99.90
75091;DHT22;63674;48.048;8.306;2023-04-01T01:40:42;5.10;99.90
75091;DHT22;63674;48.048;8.306;2023-04-01T01:43:14;5.10;99.90
75091;DHT22;63674;48.048;8.306;2023-04-01T01:45:47;5.10;99.90
75091;DHT22;63674;48.048;8.306;2023-04-01T01:48:17;5.10;99.90
75091;DHT22;63674;48.048;8.306;2023-04-01T01:50:49;5.10;99.90
75091;DHT22;63674;48.048;8.306;2023-04-01T01:53:18;5.00;99.90
75091;DHT22;63674;48.048;8.306;2023-04-01T01:55:47;5.00;99.90
75091;DHT22;63674;48.048;8.306;2023-04-01T01:58:19;5.00;99.90
75091;DHT22;63674;48.048;8.306;2023-04-01T02:00:53;5.00;99.90
75091;DHT22;63674;48.048;8.306;2023-04-01T02:03:25;5.00;99.90
75091;DHT22;63674;48.048;8.306;2023-04-01T02:05:58;5.10;99.90
75091;DHT22;63674;48.048;8.306;2023-04-01T02:08:31;5.10;99.90
75091;DHT22;63674;48.048;8.306;2023-04-01T02:11:06;5.10;99.90
75091;DHT22;63674;48.048;8.306;2023-04-01T02:13:39;5.20;99.90
75091;DHT22;63674;48.048;8.306;2023-04-01T02:16:13;5.20;99.90
75091;DHT22;63674;48.048;8.306;2023-04-01T02:18:44;5.30;99.90
75091;DHT22;63674;48.048;8.306;2023-04-01T02:21:20;5.30;99.90
75091;DHT22;63674;48.048;8.306;2023-04-01T02:23:52;5.30;99.90
75091;DHT22;63674;48.048;8.306;2023-04-01T02:26:21;5.30;99.90
75091;DHT22;63674;48.048;8.306;2023-04-01T02:28:53;5.30;99.90
75091;DHT22;63674;48.048;8.306;2023-04-01T02:31:23;5.30;99.90
75091;DHT22;63674;48.048;8.306;2023-04-01T02:33:52;5.30;99.90
75091;DHT22;63674;48.048;8.306;2023-04-01T02:36:23;5.30;99.90
75091;DHT22;63674;48.048;8.306;2023-04-01T02:38:52;5.30;99.90
75091;DHT22;63674;48.048;8.306;2023-04-01T02:41:22;5.30;99.90
75091;DHT22;63674;48.048;8.306;2023-04-01T02:43:51;5.20;99.90
75091;DHT22;63674;48.048;8.306;2023-04-01T02:46:19;5.20;99.90
75091;DHT22;63674;48.048;8.306;2023-04-01T02:48:48;5.20;99.90
75091;DHT22;63674;48.048;8.306;2023-04-01T02:51:16;5.20;99.90
75091;DHT22;63674;48.048;8.306;2023-04-01T02:53:46;5.20;99.90
75091;DHT22;63674;48.048;8.306;2023-04-01T02:56:15;5.20;99.90
75091;DHT22;63674;48.048;8.306;2023-04-01T02:58:44;5.20;99.90
75091;DHT22;63674;48.048;8.306;2023-04-01T03:01:12;5.20;99.90
75091;DHT22;63674;48.048;8.306;2023-04-01T03:03:41;5.10;99.90
75091;DHT22;63674;48.048;8.306;2023-04-01T03:06:11;5.10;99.90
75091;DHT22;63674;48.048;8.306;2023-04-01T03:08:41;5.00;99.90
75091;DHT22;63674;48.048;8.306;2023-04-01T03:11:12;4.90;99.90
75091;DHT22;63674;48.048;8.306;2023-04-01T03:13:41;4.80;99.90
75091;DHT22;63674;48.048;8.306;2023-04-01T03:16:10;4.80;99.90
75091;DHT22;63674;48.048;8.306;2023-04-01T03:18:38;4.80;99.90
75091;DHT22;63674;48.048;8.306;2023-04-01T03:21:14;4.70;99.90
75091;DHT22;63674;48.048;8.306;2023-04-01T03:23:43;4.70;99.90
75091;DHT22;63674;48.048;8.306;2023-04-01T03:26:13;4.70;99.90
75091;DHT22;63674;48.048;8.306;2023-04-01T03:28:42;4.70;99.90
75091;DHT22;63674;48.048;8.306;2023-04-01T03:31:11;4.60;99.90
75091;DHT22;63674;48.048;8.306;2023-04-01T03:33:40;4.60;99.90
75091;DHT22;63674;48.048;8.306;2023-04-01T03:36:09;4.60;99.90
75091;DHT22;63674;48.048;8.306;2023-04-01T03:38:40;4.60;99.90
75091;DHT22;63674;48.048;8.306;2023-04-01T03:41:16;4.60;99.90
75091;DHT22;63674;48.048;8.306;2023-04-01T03:43:45;4.60;99.90
75091;DHT22;63674;48.048;8.306;2023-04-01T03:46:17;4.50;99.90
75091;DHT22;63674;48.048;8.306;2023-04-01T03:48:46;4.50;99.90
75091;DHT22;63674;48.048;8.306;2023-04-01T03:51:14;4.40;99.90
75091;DHT22;63674;48.048;8.306;2023-04-01T03:53:43;4.40;99.90
75091;DHT22;63674;48.048;8.306;2023-04-01T03:56:13;4.40;99.90
75091;DHT22;63674;48.048;8.306;2023-04-01T03:58:41;4.50;99.90
75091;DHT22;63674;48.048;8.306;2023-04-01T04:01:14;4.50;99.90
75091;DHT22;63674;48.048;8.306;2023-04-01T04:03:44;4.50;99.90
75091;DHT22;63674;48.048;8.306;2023-04-01T04:06:13;4.50;99.90
75091;DHT22;63674;48.048;8.306;2023-04-01T04:08:43;4.60;99.90
75091;DHT22;63674;48.048;8.306;2023-04-01T04:11:13;4.60;99.90
75091;DHT22;63674;48.048;8.306;2023-04-01T04:13:42;4.70;99.90
75091;DHT22;63674;48.048;8.306;2023-04-01T04:16:11;4.70;99.90
75091;DHT22;63674;48.048;8.306;2023-04-01T04:18:40;4.70;99.90
75091;DHT22;63674;48.048;8.306;2023-04-01T04:21:12;4.70;99.90
75091;DHT22;63674;48.048;8.306;2023-04-01T04:23:41;4.70;99.90
75091;DHT22;63674;48.048;8.306;2023-04-01T04:26:14;4.70;99.90
75091;DHT22;63674;48.048;8.306;2023-04-01T04:28:42;4.70;99.90
75091;DHT22;63674;48.048;8.306;2023-04-01T04:31:11;4.70;99.90
75091;DHT22;63674;48.048;8.306;2023-04-01T04:33:40;4.70;99.90
75091;DHT22;63674;48.048;8.306;2023-04-01T04:36:08;4.70;99.90
75091;DHT22;63674;48.048;8.306;2023-04-01T04:38:37;4.70;99.90
75091;DHT22;63674;48.048;8.306;2023-04-01T04:41:08;4.70;99.90
75091;DHT22;63674;48.048;8.306;2023-04-01T04:43:40;4.80;99.90
75091;DHT22;63674;48.048;8.306;2023-04-01T04:46:09;4.70;99.90
75091;DHT22;63674;48.048;8.306;2023-04-01T04:48:38;4.70;99.90
75091;DHT22;63674;48.048;8.306;2023-04-01T04:51:06;4.70;99.90
75091;DHT22;63674;48.048;8.306;2023-04-01T04:53:35;4.70;99.90
75091;DHT22;63674;48.048;8.306;2023-04-01T04:56:03;4.60;99.90
75091;DHT22;63674;48.048;8.306;2023-04-01T04:58:32;4.70;99.90
75091;DHT22;63674;48.048;8.306;2023-04-01T05:01:08;4.70;99.90
75091;DHT22;63674;48.048;8.306;2023-04-01T05:03:38;4.70;99.90
75091;DHT22;63674;48.048;8.306;2023-04-01T05:06:08;4.70;99.90
75091;DHT22;63674;48.048;8.306;2023-04-01T05:08:38;4.70;99.90
75091;DHT22;63674;48.048;8.306;2023-04-01T05:11:09;4.70;99.90
75091;DHT22;63674;48.048;8.306;2023-04-01T05:13:40;4.70;99.90
75091;DHT22;63674;48.048;8.306;2023-04-01T05:16:11;4.80;99.90
75091;DHT22;63674;48.048;8.306;2023-04-01T05:18:40;4.70;99.90
75091;DHT22;63674;48.048;8.306;2023-04-01T05:21:11;4.70;99.90
75091;DHT22;63674;48.048;8.306;2023-04-01T05:23:40;4.70;99.90
75091;DHT22;63674;48.048;8.306;2023-04-01T05:26:11;4.70;99.90
75091;DHT22;63674;48.048;8.306;2023-04-01T05:28:40;4.70;99.90
75091;DHT22;63674;48.048;8.306;2023-04-01T05:31:10;4.60;99.90
75091;DHT22;63674;48.048;8.306;2023-04-01T05:33:41;4.70;99.90
75091;DHT22;63674;48.048;8.306;2023-04-01T05:36:11;4.70;99.90
75091;DHT22;63674;48.048;8.306;2023-04-01T05:38:43;4.80;99.90
75091;DHT22;63674;48.048;8.306;2023-04-01T05:41:13;4.80;99.90
75091;DHT22;63674;48.048;8.306;2023-04-01T05:43:42;4.80;99.90
75091;DHT22;63674;48.048;8.306;2023-04-01T05:46:12;4.90;99.90
75091;DHT22;63674;48.048;8.306;2023-04-01T05:48:41;4.90;99.90
75091;DHT22;63674;48.048;8.306;2023-04-01T05:51:12;4.90;99.90
75091;DHT22;63674;48.048;8.306;2023-04-01T05:53:41;5.00;99.90
75091;DHT22;63674;48.048;8.306;2023-04-01T05:56:10;5.00;99.90
75091;DHT22;63674;48.048;8.306;2023-04-01T05:58:39;5.00;99.90
75091;DHT22;63674;48.048;8.306;2023-04-01T06:01:09;5.00;99.90
75091;DHT22;63674;48.048;8.306;2023-04-01T06:03:43;5.00;99.90
75091;DHT22;63674;48.048;8.306;2023-04-01T06:06:14;5.10;99.90
75091;DHT22;63674;48.048;8.306;2023-04-01T06:08:43;5.10;99.90
75091;DHT22;63674;48.048;8.306;2023-04-01T06:11:22;5.10;99.90
75091;DHT22;63674;48.048;8.306;2023-04-01T06:14:05;5.10;99.90
75091;DHT22;63674;48.048;8.306;2023-04-01T06:16:47;5.10;99.90
75091;DHT22;63674;48.048;8.306;2023-04-01T06:19:30;5.10;99.90
75091;DHT22;63674;48.048;8.306;2023-04-01T06:22:39;5.10;99.90
75091;DHT22;63674;48.048;8.306;2023-04-01T06:25:43;5.20;99.90
75091;DHT22;63674;48.048;8.306;2023-04-01T06:28:38;5.20;99.90
75091;DHT22;63674;48.048;8.306;2023-04-01T06:31:25;5.20;99.90
75091;DHT22;63674;48.048;8.306;2023-04-01T06:34:21;5.20;99.90
75091;DHT22;63674;48.048;8.306;2023-04-01T06:37:12;5.10;99.90
75091;DHT22;63674;48.048;8.306;2023-04-01T06:40:00;5.10;99.90
75091;DHT22;63674;48.048;8.306;2023-04-01T06:42:54;5.10;99.90
75091;DHT22;63674;48.048;8.306;2023-04-01T06:45:36;5.00;99.90
75091;DHT22;63674;48.048;8.306;2023-04-01T06:48:25;5.00;99.90
75091;DHT22;63674;48.048;8.306;2023-04-01T06:51:11;5.00;99.90
75091;DHT22;63674;48.048;8.306;2023-04-01T06:53:54;5.10;99.90
75091;DHT22;63674;48.048;8.306;2023-04-01T06:56:27;5.00;99.90
75091;DHT22;63674;48.048;8.306;2023-04-01T06:58:58;5.00;99.90
75091;DHT22;63674;48.048;8.306;2023-04-01T07:01:34;5.10;99.90
75091;DHT22;63674;48.048;8.306;2023-04-01T07:04:09;5.10;99.90
75091;DHT22;63674;48.048;8.306;2023-04-01T07:06:47;5.10;99.90
75091;DHT22;63674;48.048;8.306;2023-04-01T07:09:19;5.00;99.90
75091;DHT22;63674;48.048;8.306;2023-04-01T07:11:50;5.00;99.90
75091;DHT22;63674;48.048;8.306;2023-04-01T07:14:25;5.00;99.90
75091;DHT22;63674;48.048;8.306;2023-04-01T07:17:02;5.00;99.90
75091;DHT22;63674;48.048;8.306;2023-04-01T07:19:39;4.90;99.90
75091;DHT22;63674;48.048;8.306;2023-04-01T07:22:21;4.90;99.90
75091;DHT22;63674;48.048;8.306;2023-04-01T07:24:54;4.90;99.90
75091;DHT22;63674;48.048;8.306;2023-04-01T07:27:25;5.00;99.90
75091;DHT22;63674;48.048;8.306;2023-04-01T07:29:56;5.00;99.90
75091;DHT22;63674;48.048;8.306;2023-04-01T07:32:33;5.00;99.90
75091;DHT22;63674;48.048;8.306;2023-04-01T07:35:14;5.00;99.90
75091;DHT22;63674;48.048;8.306;2023-04-01T07:37:59;5.00;99.90
75091;DHT22;63674;48.048;8.306;2023-04-01T07:40:39;5.00;99.90
75091;DHT22;63674;48.048;8.306;2023-04-01T07:43:26;5.10;99.90
75091;DHT22;63674;48.048;8.306;2023-04-01T07:46:07;5.10;99.90
75091;DHT22;63674;48.048;8.306;2023-04-01T07:48:47;5.10;99.90
75091;DHT22;63674;48.048;8.306;2023-04-01T07:51:23;5.10;99.90
75091;DHT22;63674;48.048;8.306;2023-04-01T07:54:03;5.10;99.90
75091;DHT22;63674;48.048;8.306;2023-04-01T07:56:39;5.20;99.90
75091;DHT22;63674;48.048;8.306;2023-04-01T07:59:14;5.20;99.90
75091;DHT22;63674;48.048;8.306;2023-04-01T08:01:49;5.20;99.90
75091;DHT22;63674;48.048;8.306;2023-04-01T08:04:32;5.20;99.90
75091;DHT22;63674;48.048;8.306;2023-04-01T08:07:14;5.20;99.90
75091;DHT22;63674;48.048;8.306;2023-04-01T08:09:54;5.30;99.90
75091;DHT22;63674;48.048;8.306;2023-04-01T08:12:34;5.30;99.90
75091;DHT22;63674;48.048;8.306;2023-04-01T08:15:18;5.30;99.90
75091;DHT22;63674;48.048;8.306;2023-04-01T08:18:00;5.40;99.90
75091;DHT22;63674;48.048;8.306;2023-04-01T08:20:38;5.40;99.90
75091;DHT22;63674;48.048;8.306;2023-04-01T08:23:14;5.30;99.90
75091;DHT22;63674;48.048;8.306;2023-04-01T08:25:50;5.30;99.90
75091;DHT22;63674;48.048;8.306;2023-04-01T08:28:26;5.40;99.90
75091;DHT22;63674;48.048;8.306;2023-04-01T08:31:01;5.30;99.90
75091;DHT22;63674;48.048;8.306;2023-04-01T08:33:33;5.30;99.90
75091;DHT22;63674;48.048;8.306;2023-04-01T08:36:05;5.40;99.90
75091;DHT22;63674;48.048;8.306;2023-04-01T08:38:41;5.40;99.90
75091;DHT22;63674;48.048;8.306;2023-04-01T08:41:33;5.50;99.90
75091;DHT22;63674;48.048;8.306;2023-04-01T08:44:38;5.50;99.90
75091;DHT22;63674;48.048;8.306;2023-04-01T08:47:34;5.50;99.90
75091;DHT22;63674;48.048;8.306;2023-04-01T08:50:35;5.50;99.90
75091;DHT22;63674;48.048;8.306;2023-04-01T08:53:15;5.40;99.90
75091;DHT22;63674;48.048;8.306;2023-04-01T08:56:01;5.50;99.90
75091;DHT22;63674;48.048;8.306;2023-04-01T08:58:58;5.50;99.90
75091;DHT22;63674;48.048;8.306;2023-04-01T09:01:51;5.50;99.90
75091;DHT22;63674;48.048;8.306;2023-04-01T09:04:39;5.40;99.90
75091;DHT22;63674;48.048;8.306;2023-04-01T09:07:29;5.40;99.90
75091;DHT22;63674;48.048;8.306;2023-04-01T09:10:30;5.40;99.90
75091;DHT22;63674;48.048;8.306;2023-04-01T09:13:34;5.40;99.90
75091;DHT22;63674;48.048;8.306;2023-04-01T09:16:21;5.50;99.90
75091;DHT22;63674;48.048;8.306;2023-04-01T09:19:24;5.50;99.90
75091;DHT22;63674;48.048;8.306;2023-04-01T09:22:17;5.50;99.90
75091;DHT22;63674;48.048;8.306;2023-04-01T09:25:15;5.50;99.90
75091;DHT22;63674;48.048;8.306;2023-04-01T09:27:56;5.60;99.90
75091;DHT22;63674;48.048;8.306;2023-04-01T09:30:44;5.60;99.90
75091;DHT22;63674;48.048;8.306;2023-04-01T09:33:56;5.70;99.90
75091;DHT22;63674;48.048;8.306;2023-04-01T09:36:41;5.70;99.90
75091;DHT22;63674;48.048;8.306;2023-04-01T09:39:25;5.70;99.90
75091;DHT22;63674;48.048;8.306;2023-04-01T09:42:41;5.60;99.90
75091;DHT22;63674;48.048;8.306;2023-04-01T09:45:26;5.70;99.90
75091;DHT22;63674;48.048;8.306;2023-04-01T09:48:31;5.80;99.90
75091;DHT22;63674;48.048;8.306;2023-04-01T09:51:18;5.70;99.90
75091;DHT22;63674;48.048;8.306;2023-04-01T09:54:05;5.70;99.90
75091;DHT22;63674;48.048;8.306;2023-04-01T09:57:16;5.80;99.90
75091;DHT22;63674;48.048;8.306;2023-04-01T10:00:15;5.80;99.90
75091;DHT22;63674;48.048;8.306;2023-04-01T10:10:17;5.80;99.90
75091;DHT22;63674;48.048;8.306;2023-04-01T10:13:41;5.70;99.90
75091;DHT22;63674;48.048;8.306;2023-04-01T10:16:50;5.70;99.90
75091;DHT22;63674;48.048;8.306;2023-04-01T10:20:05;5.70;99.90
75091;DHT22;63674;48.048;8.306;2023-04-01T10:23:18;5.70;99.90
75091;DHT22;63674;48.048;8.306;2023-04-01T10:26:26;5.60;99.90
75091;DHT22;63674;48.048;8.306;2023-04-01T10:29:28;5.70;99.90
75091;DHT22;63674;48.048;8.306;2023-04-01T10:39:20;5.80;99.90
75091;DHT22;63674;48.048;8.306;2023-04-01T10:42:28;5.70;99.90
75091;DHT22;63674;48.048;8.306;2023-04-01T10:49:29;5.80;99.90
75091;DHT22;63674;48.048;8.306;2023-04-01T10:52:37;5.70;99.90
75091;DHT22;63674;48.048;8.306;2023-04-01T10:56:00;5.70;99.90
75091;DHT22;63674;48.048;8.306;2023-04-01T10:59:15;5.80;99.90
75091;DHT22;63674;48.048;8.306;2023-04-01T11:05:34;5.80;99.90
75091;DHT22;63674;48.048;8.306;2023-04-01T11:09:03;5.70;99.90
75091;DHT22;63674;48.048;8.306;2023-04-01T11:12:27;5.80;99.90
75091;DHT22;63674;48.048;8.306;2023-04-01T11:15:31;5.90;99.90
75091;DHT22;63674;48.048;8.306;2023-04-01T11:25:39;5.80;99.90
75091;DHT22;63674;48.048;8.306;2023-04-01T11:31:54;5.80;99.90
75091;DHT22;63674;48.048;8.306;2023-04-01T11:34:39;5.90;99.90
75091;DHT22;63674;48.048;8.306;2023-04-01T11:37:26;5.90;99.90
75091;DHT22;63674;48.048;8.306;2023-04-01T11:40:11;6.00;99.90
75091;DHT22;63674;48.048;8.306;2023-04-01T11:42:54;6.00;99.90
75091;DHT22;63674;48.048;8.306;2023-04-01T11:45:35;5.90;99.90
75091;DHT22;63674;48.048;8.306;2023-04-01T11:48:14;5.80;99.90
75091;DHT22;63674;48.048;8.306;2023-04-01T11:51:02;5.80;99.90
75091;DHT22;63674;48.048;8.306;2023-04-01T11:53:44;5.80;99.90
75091;DHT22;63674;48.048;8.306;2023-04-01T11:56:28;5.80;99.90
75091;DHT22;63674;48.048;8.306;2023-04-01T11:59:44;5.80;99.90
75091;DHT22;63674;48.048;8.306;2023-04-01T12:02:28;5.70;99.90
75091;DHT22;63674;48.048;8.306;2023-04-01T12:05:22;5.70;99.90
75091;DHT22;63674;48.048;8.306;2023-04-01T12:08:06;5.70;99.90
75091;DHT22;63674;48.048;8.306;2023-04-01T12:10:45;5.80;99.90
75091;DHT22;63674;48.048;8.306;2023-04-01T12:13:27;5.70;99.90
75091;DHT22;63674;48.048;8.306;2023-04-01T12:16:16;5.80;99.90
75091;DHT22;63674;48.048;8.306;2023-04-01T12:18:55;5.70;99.90
75091;DHT22;63674;48.048;8.306;2023-04-01T12:21:34;5.70;99.90
75091;DHT22;63674;48.048;8.306;2023-04-01T12:24:28;5.60;99.90
75091;DHT22;63674;48.048;8.306;2023-04-01T12:27:23;5.60;99.90
75091;DHT22;63674;48.048;8.306;2023-04-01T12:33:31;5.50;99.90
75091;DHT22;63674;48.048;8.306;2023-04-01T12:36:18;5.60;99.90
75091;DHT22;63674;48.048;8.306;2023-04-01T12:39:07;5.70;99.90
75091;DHT22;63674;48.048;8.306;2023-04-01T12:41:49;5.70;99.90
75091;DHT22;63674;48.048;8.306;2023-04-01T12:44:38;5.80;99.90
75091;DHT22;63674;48.048;8.306;2023-04-01T12:47:39;5.80;99.90
75091;DHT22;63674;48.048;8.306;2023-04-01T12:50:31;5.80;99.90
75091;DHT22;63674;48.048;8.306;2023-04-01T12:53:21;5.80;99.90
75091;DHT22;63674;48.048;8.306;2023-04-01T12:56:02;5.80;99.90
75091;DHT22;63674;48.048;8.306;2023-04-01T12:58:56;5.90;99.90
75091;DHT22;63674;48.048;8.306;2023-04-01T13:02:00;5.90;99.90
75091;DHT22;63674;48.048;8.306;2023-04-01T13:04:56;5.80;99.90
75091;DHT22;63674;48.048;8.306;2023-04-01T13:07:51;5.90;99.90
75091;DHT22;63674;48.048;8.306;2023-04-01T13:10:37;5.90;99.90
75091;DHT22;63674;48.048;8.306;2023-04-01T13:13:54;6.00;99.90
75091;DHT22;63674;48.048;8.306;2023-04-01T13:16:37;6.00;99.90
75091;DHT22;63674;48.048;8.306;2023-04-01T13:19:12;6.10;99.90
75091;DHT22;63674;48.048;8.306;2023-04-01T13:21:53;6.30;99.90
75091;DHT22;63674;48.048;8.306;2023-04-01T13:24:35;6.20;99.90
75091;DHT22;63674;48.048;8.306;2023-04-01T13:27:14;6.30;99.90
75091;DHT22;63674;48.048;8.306;2023-04-01T13:29:57;6.40;99.90
75091;DHT22;63674;48.048;8.306;2023-04-01T13:32:36;6.30;99.90
75091;DHT22;63674;48.048;8.306;2023-04-01T13:35:23;6.40;99.90
75091;DHT22;63674;48.048;8.306;2023-04-01T13:38:14;6.30;99.90
75091;DHT22;63674;48.048;8.306;2023-04-01T13:41:07;6.30;99.90
75091;DHT22;63674;48.048;8.306;2023-04-01T13:43:47;6.30;99.90
75091;DHT22;63674;48.048;8.306;2023-04-01T13:46:34;6.40;99.90
75091;DHT22;63674;48.048;8.306;2023-04-01T13:58:42;6.60;99.90
75091;DHT22;63674;48.048;8.306;2023-04-01T14:01:23;6.60;99.90
75091;DHT22;63674;48.048;8.306;2023-04-01T14:07:16;6.70;99.90
75091;DHT22;63674;48.048;8.306;2023-04-01T14:10:07;6.70;99.90
75091;DHT22;63674;48.048;8.306;2023-04-01T14:12:46;6.70;99.90
75091;DHT22;63674;48.048;8.306;2023-04-01T14:15:34;6.70;99.90
75091;DHT22;63674;48.048;8.306;2023-04-01T14:18:39;6.80;99.90
75091;DHT22;63674;48.048;8.306;2023-04-01T14:21:23;6.90;99.90
75091;DHT22;63674;48.048;8.306;2023-04-01T14:24:18;6.90;99.90
75091;DHT22;63674;48.048;8.306;2023-04-01T14:30:31;7.10;99.90
75091;DHT22;63674;48.048;8.306;2023-04-01T14:33:21;7.30;99.90
75091;DHT22;63674;48.048;8.306;2023-04-01T14:36:03;7.40;99.90
75091;DHT22;63674;48.048;8.306;2023-04-01T14:38:58;7.40;99.90
75091;DHT22;63674;48.048;8.306;2023-04-01T14:41:41;7.40;99.90
75091;DHT22;63674;48.048;8.306;2023-04-01T14:44:49;7.40;99.90
75091;DHT22;63674;48.048;8.306;2023-04-01T14:47:42;7.40;99.90
75091;DHT22;63674;48.048;8.306;2023-04-01T14:50:14;7.30;99.90
75091;DHT22;63674;48.048;8.306;2023-04-01T14:52:49;7.30;99.90
75091;DHT22;63674;48.048;8.306;2023-04-01T14:55:31;7.20;99.90
75091;DHT22;63674;48.048;8.306;2023-04-01T14:58:10;7.20;99.90
75091;DHT22;63674;48.048;8.306;2023-04-01T15:03:45;7.20;99.90
75091;DHT22;63674;48.048;8.306;2023-04-01T15:06:49;7.20;99.90
75091;DHT22;63674;48.048;8.306;2023-04-01T15:09:32;7.20;99.90
75091;DHT22;63674;48.048;8.306;2023-04-01T15:12:17;7.20;99.90
75091;DHT22;63674;48.048;8.306;2023-04-01T15:15:14;7.10;99.90
75091;DHT22;63674;48.048;8.306;2023-04-01T15:17:58;7.10;99.90
75091;DHT22;63674;48.048;8.306;2023-04-01T15:23:59;6.90;99.90
75091;DHT22;63674;48.048;8.306;2023-04-01T15:29:56;6.90;99.90
75091;DHT22;63674;48.048;8.306;2023-04-01T15:32:42;6.90;99.90
75091;DHT22;63674;48.048;8.306;2023-04-01T15:35:29;7.00;99.90
75091;DHT22;63674;48.048;8.306;2023-04-01T15:38:06;7.10;99.90
75091;DHT22;63674;48.048;8.306;2023-04-01T15:40:44;7.20;99.90
75091;DHT22;63674;48.048;8.306;2023-04-01T15:43:25;7.30;99.90
75091;DHT22;63674;48.048;8.306;2023-04-01T15:46:08;7.40;99.90
75091;DHT22;63674;48.048;8.306;2023-04-01T15:48:52;7.30;99.90
75091;DHT22;63674;48.048;8.306;2023-04-01T15:57:52;7.10;99.90
75091;DHT22;63674;48.048;8.306;2023-04-01T16:00:30;7.20;99.90
75091;DHT22;63674;48.048;8.306;2023-04-01T16:03:19;7.30;99.90
75091;DHT22;63674;48.048;8.306;2023-04-01T16:06:18;7.20;99.90
75091;DHT22;63674;48.048;8.306;2023-04-01T16:09:02;7.20;99.90
75091;DHT22;63674;48.048;8.306;2023-04-01T16:11:47;7.20;99.90
75091;DHT22;63674;48.048;8.306;2023-04-01T16:14:28;7.20;99.90
75091;DHT22;63674;48.048;8.306;2023-04-01T16:17:18;7.20;99.90
75091;DHT22;63674;48.048;8.306;2023-04-01T16:19:57;7.10;99.90
75091;DHT22;63674;48.048;8.306;2023-04-01T16:22:32;7.10;99.90
75091;DHT22;63674;48.048;8.306;2023-04-01T16:25:18;7.00;99.90
75091;DHT22;63674;48.048;8.306;2023-04-01T16:27:56;6.90;99.90
75091;DHT22;63674;48.048;8.306;2023-04-01T16:30:37;6.80;99.90
75091;DHT22;63674;48.048;8.306;2023-04-01T16:33:14;6.80;99.90
75091;DHT22;63674;48.048;8.306;2023-04-01T16:35:53;6.70;99.90
75091;DHT22;63674;48.048;8.306;2023-04-01T16:38:31;6.70;99.90
75091;DHT22;63674;48.048;8.306;2023-04-01T16:41:10;6.60;99.90
75091;DHT22;63674;48.048;8.306;2023-04-01T16:43:44;6.40;99.90
75091;DHT22;63674;48.048;8.306;2023-04-01T16:46:28;6.40;99.90
75091;DHT22;63674;48.048;8.306;2023-04-01T16:49:29;6.30;99.90
75091;DHT22;63674;48.048;8.306;2023-04-01T16:52:14;6.40;99.90
75091;DHT22;63674;48.048;8.306;2023-04-01T16:54:51;6.30;99.90
75091;DHT22;63674;48.048;8.306;2023-04-01T16:57:24;6.30;99.90
75091;DHT22;63674;48.048;8.306;2023-04-01T17:00:01;6.30;99.90
75091;DHT22;63674;48.048;8.306;2023-04-01T17:02:45;6.30;99.90
75091;DHT22;63674;48.048;8.306;2023-04-01T17:05:17;6.30;99.90
75091;DHT22;63674;48.048;8.306;2023-04-01T17:07:49;6.30;99.90
75091;DHT22;63674;48.048;8.306;2023-04-01T17:10:32;6.30;99.90
75091;DHT22;63674;48.048;8.306;2023-04-01T17:13:24;6.30;99.90
75091;DHT22;63674;48.048;8.306;2023-04-01T17:16:23;6.30;99.90
75091;DHT22;63674;48.048;8.306;2023-04-01T17:19:14;6.40;99.90
75091;DHT22;63674;48.048;8.306;2023-04-01T17:21:57;6.40;99.90
75091;DHT22;63674;48.048;8.306;2023-04-01T17:24:47;6.40;99.90
75091;DHT22;63674;48.048;8.306;2023-04-01T17:27:33;6.40;99.90
75091;DHT22;63674;48.048;8.306;2023-04-01T17:30:17;6.40;99.90
75091;DHT22;63674;48.048;8.306;2023-04-01T17:33:14;6.30;99.90
75091;DHT22;63674;48.048;8.306;2023-04-01T17:35:58;6.40;99.90
75091;DHT22;63674;48.048;8.306;2023-04-01T17:38:48;6.30;99.90
75091;DHT22;63674;48.048;8.306;2023-04-01T17:41:31;6.20;99.90
75091;DHT22;63674;48.048;8.306;2023-04-01T17:44:16;6.20;99.90
75091;DHT22;63674;48.048;8.306;2023-04-01T17:47:10;6.20;99.90
75091;DHT22;63674;48.048;8.306;2023-04-01T17:49:54;6.10;99.90
75091;DHT22;63674;48.048;8.306;2023-04-01T17:52:34;6.10;99.90
75091;DHT22;63674;48.048;8.306;2023-04-01T17:55:28;6.10;99.90
75091;DHT22;63674;48.048;8.306;2023-04-01T17:58:17;6.10;99.90
75091;DHT22;63674;48.048;8.306;2023-04-01T18:07:45;6.00;99.90
75091;DHT22;63674;48.048;8.306;2023-04-01T18:10:40;6.00;99.90
75091;DHT22;63674;48.048;8.306;2023-04-01T18:13:55;5.90;99.90
75091;DHT22;63674;48.048;8.306;2023-04-01T18:16:43;5.90;99.90
75091;DHT22;63674;48.048;8.306;2023-04-01T18:19:26;6.00;99.90
75091;DHT22;63674;48.048;8.306;2023-04-01T18:22:10;6.00;99.90
75091;DHT22;63674;48.048;8.306;2023-04-01T18:24:55;6.00;99.90
75091;DHT22;63674;48.048;8.306;2023-04-01T18:27:30;6.00;99.90
75091;DHT22;63674;48.048;8.306;2023-04-01T18:30:03;5.90;99.90